PROFILE

 METAR AND TAF INFORMATION
ADDS - METARS form results

(2114 UTC 18 February 2019)
http://aviationweather.gov/metar/data/
 
NZAA 182100Z AUTO 15004KT 110V230 9999 OVC030/// 20/14 Q1016 NOSIG
NZAA 182030Z AUTO 15005KT 9999 OVC029/// 20/14 Q1016 NOSIG
TAF NZAA 181707Z 1818/1918 16005KT 9999 BKN030 BECMG 1900/1902 22010KT BECMG 1908/1910 VRB02KT 

 AIRPORT MAP

 RUNWAY INFORMATION
Runway 05L Runway length 10197 ft Runway width 148 ft
Runway elevation 15 ft Runway displaced threshold 1148 ft Runway heading 71
Runway 23R Runway length 10197 ft Runway width 148 ft
Runway elevation 22 ft Runway displaced threshold 1542 ft Runway heading 251
Runway 05R Runway length 11926 ft Runway width 148 ft
Runway elevation 15 ft Runway displaced threshold 1125 ft Runway heading 72
Runway 23L Runway length 11926 ft Runway width 148 ft
Runway elevation 23 ft Runway displaced threshold 0 ft Runway heading 252

 AIRPORT FREQUENCIES
Type APP Name APP Frequency 124.3 MHZ
Type ATIS Name ATIS Frequency 127.8 MHZ
Type CLD Name CLNC DEL Frequency 128.2 MHZ
Type GND Name GND Frequency 121.9 MHZ
Type TWR Name TWR Frequency 118.7 MHZ

 AIRPORT NEAR NAVIGATION AIDS
Type VOR-DME Name Auckland Frequency 114800 KHZ
Type NDB Name Whitford Frequency 334 KHZ
Type NDB Name Westpoint Frequency 398 KHZ